sensor_id;sensor_type;location;lat;lon;timestamp;pressure;altitude;pressure_sealevel;temperature;humidity
43934;BME280;59081;42.706;23.306;2022-12-18T00:01:12;95922.81;;;4.37;100.00
43934;BME280;59081;42.706;23.306;2022-12-18T00:03:38;95921.81;;;4.08;100.00
43934;BME280;59081;42.706;23.306;2022-12-18T00:06:04;95813.69;;;3.31;100.00
43934;BME280;59081;42.706;23.306;2022-12-18T00:08:32;95742.91;;;2.87;100.00
43934;BME280;59081;42.706;23.306;2022-12-18T00:11:10;95967.75;;;4.54;100.00
43934;BME280;59081;42.706;23.306;2022-12-18T00:13:39;95944.09;;;4.14;100.00
43934;BME280;59081;42.706;23.306;2022-12-18T00:16:16;96026.34;;;4.71;100.00
43934;BME280;59081;42.706;23.306;2022-12-18T00:18:45;95815.69;;;3.34;100.00
43934;BME280;59081;42.706;23.306;2022-12-18T00:21:12;95943.94;;;4.00;100.00
43934;BME280;59081;42.706;23.306;2022-12-18T00:23:38;95954.78;;;3.93;100.00
43934;BME280;59081;42.706;23.306;2022-12-18T00:26:06;96020.34;;;4.51;100.00
43934;BME280;59081;42.706;23.306;2022-12-18T00:28:35;95846.41;;;3.35;100.00
43934;BME280;59081;42.706;23.306;2022-12-18T00:31:07;95952.81;;;3.90;100.00
43934;BME280;59081;42.706;23.306;2022-12-18T00:33:36;95807.09;;;2.95;100.00
43934;BME280;59081;42.706;23.306;2022-12-18T00:38:43;95943.13;;;3.55;100.00
43934;BME280;59081;42.706;23.306;2022-12-18T00:41:10;95892.28;;;3.33;100.00
43934;BME280;59081;42.706;23.306;2022-12-18T00:43:36;96049.56;;;4.50;100.00
43934;BME280;59081;42.706;23.306;2022-12-18T00:46:05;95858.63;;;3.11;100.00
43934;BME280;59081;42.706;23.306;2022-12-18T00:48:31;95766.88;;;2.44;100.00
43934;BME280;59081;42.706;23.306;2022-12-18T00:51:00;95969.69;;;3.65;100.00
43934;BME280;59081;42.706;23.306;2022-12-18T00:53:25;95999.41;;;3.77;100.00
43934;BME280;59081;42.706;23.306;2022-12-18T00:55:51;95919.69;;;3.13;100.00
43934;BME280;59081;42.706;23.306;2022-12-18T00:58:16;95957.94;;;3.58;100.00
43934;BME280;59081;42.706;23.306;2022-12-18T01:00:43;95919.03;;;3.24;100.00
43934;BME280;59081;42.706;23.306;2022-12-18T01:03:09;96023.63;;;3.86;100.00
43934;BME280;59081;42.706;23.306;2022-12-18T01:05:39;96015.66;;;3.70;100.00
43934;BME280;59081;42.706;23.306;2022-12-18T01:08:06;95861.50;;;2.58;100.00
43934;BME280;59081;42.706;23.306;2022-12-18T01:10:32;95787.72;;;2.03;100.00
43934;BME280;59081;42.706;23.306;2022-12-18T01:12:58;96001.06;;;3.52;100.00
43934;BME280;59081;42.706;23.306;2022-12-18T01:15:23;95954.13;;;3.29;100.00
43934;BME280;59081;42.706;23.306;2022-12-18T01:17:52;95912.00;;;2.89;100.00
43934;BME280;59081;42.706;23.306;2022-12-18T01:20:18;95859.34;;;2.44;100.00
43934;BME280;59081;42.706;23.306;2022-12-18T01:22:43;96015.34;;;3.42;100.00
43934;BME280;59081;42.706;23.306;2022-12-18T01:25:09;95918.00;;;2.72;100.00
43934;BME280;59081;42.706;23.306;2022-12-18T01:27:34;95894.69;;;2.44;100.00
43934;BME280;59081;42.706;23.306;2022-12-18T01:30:00;95946.66;;;2.92;100.00
43934;BME280;59081;42.706;23.306;2022-12-18T01:32:25;95870.19;;;2.41;100.00
43934;BME280;59081;42.706;23.306;2022-12-18T01:34:51;95911.13;;;2.52;100.00
43934;BME280;59081;42.706;23.306;2022-12-18T01:37:16;96023.72;;;3.26;100.00
43934;BME280;59081;42.706;23.306;2022-12-18T01:39:42;95869.03;;;2.16;100.00
43934;BME280;59081;42.706;23.306;2022-12-18T01:42:15;95948.19;;;2.63;100.00
43934;BME280;59081;42.706;23.306;2022-12-18T01:50:08;96038.41;;;3.22;100.00
43934;BME280;59081;42.706;23.306;2022-12-18T01:52:35;95970.53;;;2.76;100.00
43934;BME280;59081;42.706;23.306;2022-12-18T01:55:06;95909.78;;;2.38;100.00
43934;BME280;59081;42.706;23.306;2022-12-18T01:57:32;95929.63;;;2.42;100.00
43934;BME280;59081;42.706;23.306;2022-12-18T02:00:01;96063.28;;;3.20;100.00
43934;BME280;59081;42.706;23.306;2022-12-18T02:02:28;96057.25;;;3.34;100.00
43934;BME280;59081;42.706;23.306;2022-12-18T02:04:54;96001.81;;;2.89;100.00
43934;BME280;59081;42.706;23.306;2022-12-18T02:10:04;96055.84;;;3.17;100.00
43934;BME280;59081;42.706;23.306;2022-12-18T02:12:43;96005.16;;;2.79;100.00
43934;BME280;59081;42.706;23.306;2022-12-18T02:18:07;96001.19;;;2.73;100.00
43934;BME280;59081;42.706;23.306;2022-12-18T02:20:45;95999.88;;;2.90;100.00
43934;BME280;59081;42.706;23.306;2022-12-18T02:23:36;96036.09;;;2.94;100.00
43934;BME280;59081;42.706;23.306;2022-12-18T02:28:52;96081.72;;;3.04;100.00
43934;BME280;59081;42.706;23.306;2022-12-18T02:31:23;96056.84;;;2.79;100.00
43934;BME280;59081;42.706;23.306;2022-12-18T02:33:51;95942.44;;;1.93;100.00
43934;BME280;59081;42.706;23.306;2022-12-18T02:36:18;95945.63;;;2.21;100.00
43934;BME280;59081;42.706;23.306;2022-12-18T02:38:46;95966.31;;;2.29;100.00
43934;BME280;59081;42.706;23.306;2022-12-18T02:41:13;95915.94;;;1.86;100.00
43934;BME280;59081;42.706;23.306;2022-12-18T02:43:45;95977.19;;;2.29;100.00
43934;BME280;59081;42.706;23.306;2022-12-18T02:48:53;96064.84;;;2.68;100.00
43934;BME280;59081;42.706;23.306;2022-12-18T02:51:38;95967.47;;;2.28;100.00
43934;BME280;59081;42.706;23.306;2022-12-18T02:54:10;95913.28;;;1.90;100.00
43934;BME280;59081;42.706;23.306;2022-12-18T02:56:51;95937.84;;;1.97;100.00
43934;BME280;59081;42.706;23.306;2022-12-18T02:59:30;96123.03;;;3.09;100.00
43934;BME280;59081;42.706;23.306;2022-12-18T03:02:10;95943.56;;;1.92;100.00
43934;BME280;59081;42.706;23.306;2022-12-18T03:04:48;96008.16;;;2.21;100.00
43934;BME280;59081;42.706;23.306;2022-12-18T03:07:19;96087.56;;;2.79;100.00
43934;BME280;59081;42.706;23.306;2022-12-18T03:09:49;95949.38;;;2.13;100.00
43934;BME280;59081;42.706;23.306;2022-12-18T03:12:43;96138.84;;;3.27;100.00
43934;BME280;59081;42.706;23.306;2022-12-18T03:15:17;96075.88;;;2.79;100.00
43934;BME280;59081;42.706;23.306;2022-12-18T03:17:47;96052.13;;;2.50;100.00
43934;BME280;59081;42.706;23.306;2022-12-18T03:20:18;95982.03;;;1.94;100.00
43934;BME280;59081;42.706;23.306;2022-12-18T03:22:47;96009.41;;;2.04;100.00
43934;BME280;59081;42.706;23.306;2022-12-18T03:25:16;96159.00;;;3.22;100.00
43934;BME280;59081;42.706;23.306;2022-12-18T03:27:47;95932.59;;;1.85;100.00
43934;BME280;59081;42.706;23.306;2022-12-18T03:30:15;96045.53;;;2.51;100.00
43934;BME280;59081;42.706;23.306;2022-12-18T03:32:47;96181.00;;;3.36;100.00
43934;BME280;59081;42.706;23.306;2022-12-18T03:35:18;96068.44;;;2.50;100.00
43934;BME280;59081;42.706;23.306;2022-12-18T03:37:45;95939.88;;;1.58;100.00
43934;BME280;59081;42.706;23.306;2022-12-18T03:40:20;96096.06;;;2.52;100.00
43934;BME280;59081;42.706;23.306;2022-12-18T03:45:23;96103.66;;;2.65;100.00
43934;BME280;59081;42.706;23.306;2022-12-18T03:48:33;96202.72;;;3.33;100.00
43934;BME280;59081;42.706;23.306;2022-12-18T03:51:06;96078.81;;;2.21;100.00
43934;BME280;59081;42.706;23.306;2022-12-18T03:56:05;96220.63;;;3.07;100.00
43934;BME280;59081;42.706;23.306;2022-12-18T03:58:34;96087.03;;;2.25;100.00
43934;BME280;59081;42.706;23.306;2022-12-18T04:01:02;96104.06;;;2.44;100.00
43934;BME280;59081;42.706;23.306;2022-12-18T04:03:31;96131.47;;;2.55;100.00
43934;BME280;59081;42.706;23.306;2022-12-18T04:05:59;96214.59;;;2.98;100.00
43934;BME280;59081;42.706;23.306;2022-12-18T04:08:26;96214.75;;;3.05;100.00
43934;BME280;59081;42.706;23.306;2022-12-18T04:10:52;96057.50;;;1.81;100.00
43934;BME280;59081;42.706;23.306;2022-12-18T04:13:28;96190.72;;;2.65;100.00
43934;BME280;59081;42.706;23.306;2022-12-18T04:15:54;96205.97;;;2.93;100.00
43934;BME280;59081;42.706;23.306;2022-12-18T04:18:19;96002.56;;;1.49;100.00
43934;BME280;59081;42.706;23.306;2022-12-18T04:20:45;96103.75;;;2.04;100.00
43934;BME280;59081;42.706;23.306;2022-12-18T04:23:10;96046.72;;;1.65;100.00
43934;BME280;59081;42.706;23.306;2022-12-18T04:25:36;96180.47;;;2.36;100.00
43934;BME280;59081;42.706;23.306;2022-12-18T04:28:01;96102.19;;;1.84;100.00
43934;BME280;59081;42.706;23.306;2022-12-18T04:30:27;96034.00;;;1.50;100.00
43934;BME280;59081;42.706;23.306;2022-12-18T04:32:52;96266.03;;;3.03;100.00
43934;BME280;59081;42.706;23.306;2022-12-18T04:35:18;95975.91;;;0.97;100.00
43934;BME280;59081;42.706;23.306;2022-12-18T04:37:43;96260.97;;;2.83;100.00
43934;BME280;59081;42.706;23.306;2022-12-18T04:40:09;96143.00;;;2.06;100.00
43934;BME280;59081;42.706;23.306;2022-12-18T04:42:35;96057.16;;;1.44;100.00
43934;BME280;59081;42.706;23.306;2022-12-18T04:45:00;96113.31;;;1.59;100.00
43934;BME280;59081;42.706;23.306;2022-12-18T04:47:26;96185.75;;;2.09;100.00
43934;BME280;59081;42.706;23.306;2022-12-18T04:49:51;96129.19;;;1.96;100.00
43934;BME280;59081;42.706;23.306;2022-12-18T04:52:17;96171.16;;;2.18;100.00
43934;BME280;59081;42.706;23.306;2022-12-18T04:54:42;96165.66;;;2.14;100.00
43934;BME280;59081;42.706;23.306;2022-12-18T04:57:08;96052.41;;;1.22;100.00
43934;BME280;59081;42.706;23.306;2022-12-18T04:59:33;96303.19;;;2.54;100.00
43934;BME280;59081;42.706;23.306;2022-12-18T05:02:00;96195.59;;;1.79;100.00
43934;BME280;59081;42.706;23.306;2022-12-18T05:04:26;96245.44;;;2.22;100.00
43934;BME280;59081;42.706;23.306;2022-12-18T05:06:51;96117.22;;;1.43;100.00
43934;BME280;59081;42.706;23.306;2022-12-18T05:09:17;96210.56;;;1.89;100.00
43934;BME280;59081;42.706;23.306;2022-12-18T05:11:42;96259.38;;;2.20;100.00
43934;BME280;59081;42.706;23.306;2022-12-18T05:14:07;96108.81;;;1.13;100.00
43934;BME280;59081;42.706;23.306;2022-12-18T05:16:33;96094.69;;;1.03;100.00
43934;BME280;59081;42.706;23.306;2022-12-18T05:18:59;96095.63;;;0.95;100.00
43934;BME280;59081;42.706;23.306;2022-12-18T05:21:24;96062.00;;;0.65;100.00
43934;BME280;59081;42.706;23.306;2022-12-18T05:23:50;96141.41;;;1.48;100.00
43934;BME280;59081;42.706;23.306;2022-12-18T05:26:17;96239.38;;;1.93;100.00
43934;BME280;59081;42.706;23.306;2022-12-18T05:28:43;96199.50;;;1.62;100.00
43934;BME280;59081;42.706;23.306;2022-12-18T05:31:18;96317.47;;;2.31;100.00
43934;BME280;59081;42.706;23.306;2022-12-18T05:33:43;96086.13;;;0.70;100.00
43934;BME280;59081;42.706;23.306;2022-12-18T05:36:10;96369.59;;;2.53;100.00
43934;BME280;59081;42.706;23.306;2022-12-18T05:38:37;96359.81;;;2.67;100.00
43934;BME280;59081;42.706;23.306;2022-12-18T05:41:04;96356.09;;;2.75;99.70
43934;BME280;59081;42.706;23.306;2022-12-18T05:43:30;96192.63;;;1.49;98.74
43934;BME280;59081;42.706;23.306;2022-12-18T05:45:55;96270.00;;;1.90;99.31
43934;BME280;59081;42.706;23.306;2022-12-18T05:48:22;96371.44;;;2.49;100.00
43934;BME280;59081;42.706;23.306;2022-12-18T05:50:49;96346.25;;;2.32;100.00
43934;BME280;59081;42.706;23.306;2022-12-18T05:53:16;96288.88;;;2.02;99.69
43934;BME280;59081;42.706;23.306;2022-12-18T05:55:43;96374.13;;;2.64;99.10
43934;BME280;59081;42.706;23.306;2022-12-18T05:58:10;96292.06;;;2.04;98.73
43934;BME280;59081;42.706;23.306;2022-12-18T06:00:38;96121.66;;;0.81;98.79
43934;BME280;59081;42.706;23.306;2022-12-18T06:03:05;96141.94;;;0.71;99.15
43934;BME280;59081;42.706;23.306;2022-12-18T06:05:36;96150.16;;;0.75;99.62
43934;BME280;59081;42.706;23.306;2022-12-18T06:08:02;96186.91;;;1.03;100.00
43934;BME280;59081;42.706;23.306;2022-12-18T06:10:28;96253.50;;;1.48;99.89
43934;BME280;59081;42.706;23.306;2022-12-18T06:12:53;96261.44;;;1.72;98.56
43934;BME280;59081;42.706;23.306;2022-12-18T06:15:19;96319.59;;;1.87;99.37
43934;BME280;59081;42.706;23.306;2022-12-18T06:17:44;96225.72;;;1.39;100.00
43934;BME280;59081;42.706;23.306;2022-12-18T06:20:10;96259.97;;;1.59;99.95
43934;BME280;59081;42.706;23.306;2022-12-18T06:22:35;96235.75;;;1.35;100.00
43934;BME280;59081;42.706;23.306;2022-12-18T06:25:01;96230.41;;;1.23;100.00
43934;BME280;59081;42.706;23.306;2022-12-18T06:27:26;96305.06;;;1.80;100.00
43934;BME280;59081;42.706;23.306;2022-12-18T06:29:52;96177.53;;;1.17;98.60
43934;BME280;59081;42.706;23.306;2022-12-18T06:32:17;96300.25;;;1.89;97.99
43934;BME280;59081;42.706;23.306;2022-12-18T06:34:43;96222.53;;;1.33;98.33
43934;BME280;59081;42.706;23.306;2022-12-18T06:37:08;96214.03;;;1.19;98.60
43934;BME280;59081;42.706;23.306;2022-12-18T06:39:34;96315.25;;;1.67;99.26
43934;BME280;59081;42.706;23.306;2022-12-18T06:41:59;96433.84;;;2.41;99.71
43934;BME280;59081;42.706;23.306;2022-12-18T06:44:24;96321.34;;;1.80;97.98
43934;BME280;59081;42.706;23.306;2022-12-18T06:46:50;96273.09;;;1.57;96.60
43934;BME280;59081;42.706;23.306;2022-12-18T06:49:15;96212.97;;;1.08;96.13
43934;BME280;59081;42.706;23.306;2022-12-18T06:51:42;96405.59;;;2.46;94.29
43934;BME280;59081;42.706;23.306;2022-12-18T06:54:07;96433.22;;;2.48;92.63
43934;BME280;59081;42.706;23.306;2022-12-18T06:56:33;96296.50;;;1.46;92.59
43934;BME280;59081;42.706;23.306;2022-12-18T06:58:59;96331.19;;;1.68;92.45
43934;BME280;59081;42.706;23.306;2022-12-18T07:01:24;96413.50;;;2.35;91.48
43934;BME280;59081;42.706;23.306;2022-12-18T07:03:54;96351.03;;;2.04;90.46
43934;BME280;59081;42.706;23.306;2022-12-18T07:06:22;96431.94;;;2.42;91.29
43934;BME280;59081;42.706;23.306;2022-12-18T07:08:49;96345.72;;;1.76;92.95
43934;BME280;59081;42.706;23.306;2022-12-18T07:11:16;96236.63;;;0.92;94.29
43934;BME280;59081;42.706;23.306;2022-12-18T07:13:41;96298.53;;;1.18;95.73
43934;BME280;59081;42.706;23.306;2022-12-18T07:16:09;96368.69;;;1.63;96.15
43934;BME280;59081;42.706;23.306;2022-12-18T07:18:35;96404.72;;;2.07;95.55
43934;BME280;59081;42.706;23.306;2022-12-18T07:21:08;96258.16;;;1.16;94.24
43934;BME280;59081;42.706;23.306;2022-12-18T07:23:34;96250.03;;;1.00;95.64
43934;BME280;59081;42.706;23.306;2022-12-18T07:26:05;96372.53;;;1.78;96.41
43934;BME280;59081;42.706;23.306;2022-12-18T07:28:32;96278.44;;;1.07;95.94
43934;BME280;59081;42.706;23.306;2022-12-18T07:30:58;96430.91;;;1.84;98.71
43934;BME280;59081;42.706;23.306;2022-12-18T07:33:27;96264.69;;;0.68;98.78
43934;BME280;59081;42.706;23.306;2022-12-18T07:35:52;96269.63;;;1.10;97.84
43934;BME280;59081;42.706;23.306;2022-12-18T07:38:18;96415.56;;;1.91;97.01
43934;BME280;59081;42.706;23.306;2022-12-18T07:40:43;96290.63;;;0.97;98.61
43934;BME280;59081;42.706;23.306;2022-12-18T07:43:08;96282.38;;;0.93;98.21
43934;BME280;59081;42.706;23.306;2022-12-18T07:45:34;96411.88;;;1.68;98.99
43934;BME280;59081;42.706;23.306;2022-12-18T07:47:59;96345.63;;;1.25;99.67
43934;BME280;59081;42.706;23.306;2022-12-18T07:50:25;96307.25;;;0.95;99.78
43934;BME280;59081;42.706;23.306;2022-12-18T07:52:50;96283.72;;;0.99;99.32
43934;BME280;59081;42.706;23.306;2022-12-18T07:55:16;96282.47;;;0.81;98.54
43934;BME280;59081;42.706;23.306;2022-12-18T07:57:41;96306.56;;;0.98;99.54
43934;BME280;59081;42.706;23.306;2022-12-18T08:00:07;96277.28;;;0.76;100.00
43934;BME280;59081;42.706;23.306;2022-12-18T08:02:33;96219.22;;;0.33;100.00
43934;BME280;59081;42.706;23.306;2022-12-18T08:04:58;96252.28;;;0.55;100.00
43934;BME280;59081;42.706;23.306;2022-12-18T08:07:24;96388.28;;;1.56;100.00
43934;BME280;59081;42.706;23.306;2022-12-18T08:09:50;96320.59;;;1.32;99.75
43934;BME280;59081;42.706;23.306;2022-12-18T08:12:15;96379.97;;;1.49;98.99
43934;BME280;59081;42.706;23.306;2022-12-18T08:14:40;96496.56;;;2.17;99.85
43934;BME280;59081;42.706;23.306;2022-12-18T08:17:06;96229.25;;;0.33;99.95
43934;BME280;59081;42.706;23.306;2022-12-18T08:19:34;96535.09;;;2.19;100.00
43934;BME280;59081;42.706;23.306;2022-12-18T08:21:59;96343.75;;;0.98;99.91
43934;BME280;59081;42.706;23.306;2022-12-18T08:24:25;96352.00;;;1.17;99.42
43934;BME280;59081;42.706;23.306;2022-12-18T08:26:50;96414.25;;;1.85;96.20
43934;BME280;59081;42.706;23.306;2022-12-18T08:29:16;96329.88;;;1.15;95.49
43934;BME280;59081;42.706;23.306;2022-12-18T08:31:41;96354.75;;;1.33;95.37
43934;BME280;59081;42.706;23.306;2022-12-18T08:34:07;96422.84;;;1.56;95.20
43934;BME280;59081;42.706;23.306;2022-12-18T08:36:33;96403.06;;;1.27;95.16
43934;BME280;59081;42.706;23.306;2022-12-18T08:38:58;96285.38;;;0.60;96.82
43934;BME280;59081;42.706;23.306;2022-12-18T08:41:24;96496.13;;;2.15;96.46
43934;BME280;59081;42.706;23.306;2022-12-18T08:43:49;96288.97;;;1.08;93.33
43934;BME280;59081;42.706;23.306;2022-12-18T08:46:39;96525.94;;;2.43;93.83
43934;BME280;59081;42.706;23.306;2022-12-18T08:49:06;96500.34;;;2.13;94.64
43934;BME280;59081;42.706;23.306;2022-12-18T08:51:34;96448.94;;;1.76;92.91
43934;BME280;59081;42.706;23.306;2022-12-18T08:54:01;96336.16;;;1.03;93.21
43934;BME280;59081;42.706;23.306;2022-12-18T08:56:26;96388.00;;;1.30;93.11
43934;BME280;59081;42.706;23.306;2022-12-18T08:58:53;96522.00;;;2.56;90.92
43934;BME280;59081;42.706;23.306;2022-12-18T09:01:20;96378.06;;;1.65;89.47
43934;BME280;59081;42.706;23.306;2022-12-18T09:03:46;96470.19;;;2.02;88.60
43934;BME280;59081;42.706;23.306;2022-12-18T09:06:14;96285.34;;;0.88;89.27
43934;BME280;59081;42.706;23.306;2022-12-18T09:08:41;96330.34;;;1.05;89.35
43934;BME280;59081;42.706;23.306;2022-12-18T09:11:21;96398.81;;;1.58;88.05
43934;BME280;59081;42.706;23.306;2022-12-18T09:13:48;96402.41;;;1.62;89.23
43934;BME280;59081;42.706;23.306;2022-12-18T09:16:13;96356.34;;;1.65;87.09
43934;BME280;59081;42.706;23.306;2022-12-18T09:18:39;96401.28;;;1.79;85.85
43934;BME280;59081;42.706;23.306;2022-12-18T09:21:12;96321.19;;;1.25;86.25
43934;BME280;59081;42.706;23.306;2022-12-18T09:23:39;96315.50;;;1.15;86.21
43934;BME280;59081;42.706;23.306;2022-12-18T09:26:04;96294.03;;;0.94;85.55
43934;BME280;59081;42.706;23.306;2022-12-18T09:28:30;96462.97;;;2.09;85.75
43934;BME280;59081;42.706;23.306;2022-12-18T09:30:56;96437.31;;;2.07;86.49
43934;BME280;59081;42.706;23.306;2022-12-18T09:33:23;96325.22;;;1.63;83.37
43934;BME280;59081;42.706;23.306;2022-12-18T09:35:49;96360.00;;;1.57;84.04
43934;BME280;59081;42.706;23.306;2022-12-18T09:38:18;96427.16;;;2.04;84.33
43934;BME280;59081;42.706;23.306;2022-12-18T09:40:49;96436.88;;;2.05;84.83
43934;BME280;59081;42.706;23.306;2022-12-18T09:43:28;96425.28;;;1.92;86.32
43934;BME280;59081;42.706;23.306;2022-12-18T09:46:00;96441.78;;;2.15;85.88
43934;BME280;59081;42.706;23.306;2022-12-18T09:48:54;96401.63;;;2.24;83.98
43934;BME280;59081;42.706;23.306;2022-12-18T09:51:36;96566.22;;;3.20;81.77
43934;BME280;59081;42.706;23.306;2022-12-18T09:54:06;96555.03;;;3.05;82.22
43934;BME280;59081;42.706;23.306;2022-12-18T09:56:38;96552.66;;;3.04;80.79
43934;BME280;59081;42.706;23.306;2022-12-18T09:59:05;96563.66;;;2.92;81.99
43934;BME280;59081;42.706;23.306;2022-12-18T10:01:32;96558.28;;;2.95;82.51
43934;BME280;59081;42.706;23.306;2022-12-18T10:03:58;96542.53;;;3.04;82.66
43934;BME280;59081;42.706;23.306;2022-12-18T10:14:59;96446.94;;;2.36;81.13
43934;BME280;59081;42.706;23.306;2022-12-18T10:18:02;96541.41;;;3.05;81.59
43934;BME280;59081;42.706;23.306;2022-12-18T10:20:46;96498.25;;;2.88;81.61
43934;BME280;59081;42.706;23.306;2022-12-18T10:23:41;96398.47;;;2.22;80.15
43934;BME280;59081;42.706;23.306;2022-12-18T10:26:17;96340.28;;;1.76;81.07
43934;BME280;59081;42.706;23.306;2022-12-18T10:28:43;96498.69;;;2.90;80.59
43934;BME280;59081;42.706;23.306;2022-12-18T10:31:22;96329.00;;;1.90;80.22
43934;BME280;59081;42.706;23.306;2022-12-18T10:33:48;96426.13;;;2.28;81.38
43934;BME280;59081;42.706;23.306;2022-12-18T10:36:14;96468.84;;;2.78;79.85
43934;BME280;59081;42.706;23.306;2022-12-18T10:38:40;96436.00;;;2.87;80.40
43934;BME280;59081;42.706;23.306;2022-12-18T10:41:06;96482.81;;;3.31;79.22
43934;BME280;59081;42.706;23.306;2022-12-18T10:43:38;96292.84;;;2.05;79.50
43934;BME280;59081;42.706;23.306;2022-12-18T10:48:53;96396.66;;;2.65;79.73
43934;BME280;59081;42.706;23.306;2022-12-18T10:51:39;96413.16;;;2.72;79.74
43934;BME280;59081;42.706;23.306;2022-12-18T10:54:12;96377.84;;;2.56;79.21
43934;BME280;59081;42.706;23.306;2022-12-18T10:56:40;96505.19;;;3.59;77.87
43934;BME280;59081;42.706;23.306;2022-12-18T10:59:09;96381.06;;;2.62;78.88
43934;BME280;59081;42.706;23.306;2022-12-18T11:01:53;96318.31;;;2.16;79.41
43934;BME280;59081;42.706;23.306;2022-12-18T11:04:30;96531.84;;;3.50;79.18
43934;BME280;59081;42.706;23.306;2022-12-18T11:06:59;96445.97;;;2.98;78.48
43934;BME280;59081;42.706;23.306;2022-12-18T11:12:00;96233.22;;;1.96;74.64
43934;BME280;59081;42.706;23.306;2022-12-18T11:14:41;96449.03;;;2.97;75.77
43934;BME280;59081;42.706;23.306;2022-12-18T11:17:19;96560.38;;;3.56;77.25
43934;BME280;59081;42.706;23.306;2022-12-18T11:19:52;96403.56;;;2.59;77.65
43934;BME280;59081;42.706;23.306;2022-12-18T11:22:21;96432.06;;;2.84;77.11
43934;BME280;59081;42.706;23.306;2022-12-18T11:25:00;96555.28;;;3.74;77.98
43934;BME280;59081;42.706;23.306;2022-12-18T11:27:28;96285.91;;;2.07;76.03
43934;BME280;59081;42.706;23.306;2022-12-18T11:30:09;96382.72;;;2.66;76.40
43934;BME280;59081;42.706;23.306;2022-12-18T11:32:43;96447.34;;;3.08;76.46
43934;BME280;59081;42.706;23.306;2022-12-18T11:35:32;96399.69;;;2.60;77.74
43934;BME280;59081;42.706;23.306;2022-12-18T11:38:26;96556.38;;;3.69;77.90
43934;BME280;59081;42.706;23.306;2022-12-18T11:40:58;96358.59;;;2.65;76.91
43934;BME280;59081;42.706;23.306;2022-12-18T11:43:31;96495.44;;;3.39;75.67
43934;BME280;59081;42.706;23.306;2022-12-18T11:46:03;96444.38;;;2.97;75.84
43934;BME280;59081;42.706;23.306;2022-12-18T11:48:36;96377.97;;;2.63;76.12
43934;BME280;59081;42.706;23.306;2022-12-18T11:51:11;96328.91;;;2.21;77.14
43934;BME280;59081;42.706;23.306;2022-12-18T11:53:38;96357.72;;;2.26;77.05
43934;BME280;59081;42.706;23.306;2022-12-18T11:56:36;96545.59;;;3.96;74.52
43934;BME280;59081;42.706;23.306;2022-12-18T12:05:17;96545.63;;;3.57;77.83
43934;BME280;59081;42.706;23.306;2022-12-18T12:21:21;96478.81;;;3.25;76.56
43934;BME280;59081;42.706;23.306;2022-12-18T12:26:58;96464.09;;;3.29;77.71
43934;BME280;59081;42.706;23.306;2022-12-18T12:29:40;96547.38;;;3.88;76.42
43934;BME280;59081;42.706;23.306;2022-12-18T12:32:20;96494.00;;;3.45;77.58
43934;BME280;59081;42.706;23.306;2022-12-18T12:40:26;96417.53;;;2.76;77.17
43934;BME280;59081;42.706;23.306;2022-12-18T12:42:58;96394.69;;;3.00;76.24
43934;BME280;59081;42.706;23.306;2022-12-18T12:45:50;96458.28;;;3.31;77.10
43934;BME280;59081;42.706;23.306;2022-12-18T12:50:57;96374.47;;;2.63;77.19
43934;BME280;59081;42.706;23.306;2022-12-18T12:53:31;96427.56;;;2.92;77.70
43934;BME280;59081;42.706;23.306;2022-12-18T12:55:58;96298.97;;;2.02;78.20
43934;BME280;59081;42.706;23.306;2022-12-18T13:06:47;96312.81;;;1.97;76.70
43934;BME280;59081;42.706;23.306;2022-12-18T13:09:15;96482.00;;;2.92;76.92
43934;BME280;59081;42.706;23.306;2022-12-18T13:11:43;96312.84;;;1.81;78.00
43934;BME280;59081;42.706;23.306;2022-12-18T13:14:39;96579.75;;;3.70;76.76
43934;BME280;59081;42.706;23.306;2022-12-18T13:17:24;96439.31;;;2.61;78.01
43934;BME280;59081;42.706;23.306;2022-12-18T13:22:34;96369.97;;;2.00;79.00
43934;BME280;59081;42.706;23.306;2022-12-18T13:25:00;96446.63;;;2.57;78.53
43934;BME280;59081;42.706;23.306;2022-12-18T13:36:04;96419.03;;;2.39;79.06
43934;BME280;59081;42.706;23.306;2022-12-18T13:38:36;96583.34;;;3.20;79.43
43934;BME280;59081;42.706;23.306;2022-12-18T13:41:20;96344.50;;;1.73;79.42
43934;BME280;59081;42.706;23.306;2022-12-18T13:43:57;96373.25;;;2.25;78.75
43934;BME280;59081;42.706;23.306;2022-12-18T13:46:47;96589.78;;;3.66;77.75
43934;BME280;59081;42.706;23.306;2022-12-18T13:51:51;96610.72;;;3.43;78.11
43934;BME280;59081;42.706;23.306;2022-12-18T13:54:38;96426.09;;;2.24;77.18
43934;BME280;59081;42.706;23.306;2022-12-18T13:57:05;96632.19;;;3.29;77.93
43934;BME280;59081;42.706;23.306;2022-12-18T13:59:50;96487.28;;;2.85;76.18
43934;BME280;59081;42.706;23.306;2022-12-18T14:02:20;96362.09;;;1.80;75.75
43934;BME280;59081;42.706;23.306;2022-12-18T14:04:47;96343.91;;;1.64;75.94
43934;BME280;59081;42.706;23.306;2022-12-18T14:07:16;96408.28;;;1.95;76.46
43934;BME280;59081;42.706;23.306;2022-12-18T14:09:45;96450.91;;;2.23;76.42
43934;BME280;59081;42.706;23.306;2022-12-18T14:12:21;96419.50;;;1.94;75.99
43934;BME280;59081;42.706;23.306;2022-12-18T14:15:14;96448.25;;;2.42;74.75
43934;BME280;59081;42.706;23.306;2022-12-18T14:17:46;96636.81;;;3.44;75.07
43934;BME280;59081;42.706;23.306;2022-12-18T14:20:14;96552.50;;;2.81;75.11
43934;BME280;59081;42.706;23.306;2022-12-18T14:22:43;96462.56;;;2.23;75.63
43934;BME280;59081;42.706;23.306;2022-12-18T14:28:12;96643.34;;;3.24;76.15
43934;BME280;59081;42.706;23.306;2022-12-18T14:30:43;96550.59;;;2.66;74.68
43934;BME280;59081;42.706;23.306;2022-12-18T14:35:38;96463.06;;;1.82;75.47
43934;BME280;59081;42.706;23.306;2022-12-18T14:38:30;96647.69;;;2.93;75.60
43934;BME280;59081;42.706;23.306;2022-12-18T14:41:01;96452.00;;;1.74;73.71
43934;BME280;59081;42.706;23.306;2022-12-18T14:43:29;96551.22;;;2.43;73.55
43934;BME280;59081;42.706;23.306;2022-12-18T14:45:55;96652.59;;;3.03;73.48